sensor_id;sensor_type;location;lat;lon;timestamp;P1;durP1;ratioP1;P2;durP2;ratioP2
12832;SDS011;6483;51.310;4.462;2023-02-28T00:01:28;12.10;;;7.17;;
12832;SDS011;6483;51.310;4.462;2023-02-28T00:03:58;10.93;;;7.83;;
12832;SDS011;6483;51.310;4.462;2023-02-28T00:06:24;11.43;;;7.83;;
12832;SDS011;6483;51.310;4.462;2023-02-28T00:08:54;12.73;;;8.27;;
12832;SDS011;6483;51.310;4.462;2023-02-28T00:11:20;12.93;;;7.90;;
12832;SDS011;6483;51.310;4.462;2023-02-28T00:13:48;12.63;;;7.83;;
12832;SDS011;6483;51.310;4.462;2023-02-28T00:16:15;16.37;;;8.00;;
12832;SDS011;6483;51.310;4.462;2023-02-28T00:18:45;11.60;;;8.27;;
12832;SDS011;6483;51.310;4.462;2023-02-28T00:21:13;15.23;;;8.70;;
12832;SDS011;6483;51.310;4.462;2023-02-28T00:23:39;13.27;;;8.73;;
12832;SDS011;6483;51.310;4.462;2023-02-28T00:26:05;12.33;;;8.27;;
12832;SDS011;6483;51.310;4.462;2023-02-28T00:28:32;13.33;;;8.83;;
12832;SDS011;6483;51.310;4.462;2023-02-28T00:30:58;10.40;;;8.33;;
12832;SDS011;6483;51.310;4.462;2023-02-28T00:33:24;13.53;;;8.37;;
12832;SDS011;6483;51.310;4.462;2023-02-28T00:35:50;11.47;;;8.13;;
12832;SDS011;6483;51.310;4.462;2023-02-28T00:38:27;11.40;;;7.80;;
12832;SDS011;6483;51.310;4.462;2023-02-28T00:40:52;12.53;;;7.60;;
12832;SDS011;6483;51.310;4.462;2023-02-28T00:43:23;11.53;;;8.13;;
12832;SDS011;6483;51.310;4.462;2023-02-28T00:45:49;12.37;;;8.10;;
12832;SDS011;6483;51.310;4.462;2023-02-28T00:48:14;14.50;;;8.53;;
12832;SDS011;6483;51.310;4.462;2023-02-28T00:50:43;14.33;;;8.57;;
12832;SDS011;6483;51.310;4.462;2023-02-28T00:53:08;14.03;;;8.43;;
12832;SDS011;6483;51.310;4.462;2023-02-28T00:55:35;11.93;;;7.50;;
12832;SDS011;6483;51.310;4.462;2023-02-28T00:58:01;11.43;;;8.20;;
12832;SDS011;6483;51.310;4.462;2023-02-28T01:00:27;16.33;;;8.67;;
12832;SDS011;6483;51.310;4.462;2023-02-28T01:02:52;15.03;;;8.80;;
12832;SDS011;6483;51.310;4.462;2023-02-28T01:05:18;10.90;;;8.47;;
12832;SDS011;6483;51.310;4.462;2023-02-28T01:07:45;11.03;;;8.30;;
12832;SDS011;6483;51.310;4.462;2023-02-28T01:10:11;15.33;;;8.57;;
12832;SDS011;6483;51.310;4.462;2023-02-28T01:12:37;13.37;;;9.03;;
12832;SDS011;6483;51.310;4.462;2023-02-28T01:15:06;13.70;;;7.60;;
12832;SDS011;6483;51.310;4.462;2023-02-28T01:17:32;13.03;;;8.57;;
12832;SDS011;6483;51.310;4.462;2023-02-28T01:19:57;12.70;;;8.20;;
12832;SDS011;6483;51.310;4.462;2023-02-28T01:22:23;12.43;;;8.03;;
12832;SDS011;6483;51.310;4.462;2023-02-28T01:24:50;11.23;;;8.27;;
12832;SDS011;6483;51.310;4.462;2023-02-28T01:27:16;12.67;;;8.50;;
12832;SDS011;6483;51.310;4.462;2023-02-28T01:29:45;11.83;;;8.17;;
12832;SDS011;6483;51.310;4.462;2023-02-28T01:32:10;12.37;;;7.90;;
12832;SDS011;6483;51.310;4.462;2023-02-28T01:34:36;16.33;;;8.77;;
12832;SDS011;6483;51.310;4.462;2023-02-28T01:37:02;11.07;;;7.93;;
12832;SDS011;6483;51.310;4.462;2023-02-28T01:39:28;15.73;;;8.03;;
12832;SDS011;6483;51.310;4.462;2023-02-28T01:41:54;13.00;;;7.80;;
12832;SDS011;6483;51.310;4.462;2023-02-28T01:47:19;13.10;;;8.33;;
12832;SDS011;6483;51.310;4.462;2023-02-28T01:49:47;12.47;;;8.13;;
12832;SDS011;6483;51.310;4.462;2023-02-28T01:52:13;12.97;;;8.23;;
12832;SDS011;6483;51.310;4.462;2023-02-28T01:54:43;12.83;;;8.17;;
12832;SDS011;6483;51.310;4.462;2023-02-28T01:57:16;12.33;;;8.50;;
12832;SDS011;6483;51.310;4.462;2023-02-28T01:59:52;11.67;;;8.13;;
12832;SDS011;6483;51.310;4.462;2023-02-28T02:02:23;10.90;;;8.00;;
12832;SDS011;6483;51.310;4.462;2023-02-28T02:07:49;14.37;;;8.97;;
12832;SDS011;6483;51.310;4.462;2023-02-28T02:10:20;13.10;;;8.73;;
12832;SDS011;6483;51.310;4.462;2023-02-28T02:15:26;10.70;;;8.63;;
12832;SDS011;6483;51.310;4.462;2023-02-28T02:17:56;10.37;;;7.53;;
12832;SDS011;6483;51.310;4.462;2023-02-28T02:29:21;12.27;;;8.10;;
12832;SDS011;6483;51.310;4.462;2023-02-28T02:32:19;14.37;;;9.27;;
12832;SDS011;6483;51.310;4.462;2023-02-28T02:37:49;13.17;;;8.60;;
12832;SDS011;6483;51.310;4.462;2023-02-28T02:40:19;11.40;;;8.33;;
12832;SDS011;6483;51.310;4.462;2023-02-28T02:46:06;15.77;;;9.00;;
12832;SDS011;6483;51.310;4.462;2023-02-28T02:48:16;13.17;;;8.40;;
12832;SDS011;6483;51.310;4.462;2023-02-28T02:50:47;13.60;;;8.93;;
12832;SDS011;6483;51.310;4.462;2023-02-28T02:53:17;11.97;;;8.73;;
12832;SDS011;6483;51.310;4.462;2023-02-28T02:55:47;13.40;;;8.47;;
12832;SDS011;6483;51.310;4.462;2023-02-28T02:58:20;14.17;;;9.10;;
12832;SDS011;6483;51.310;4.462;2023-02-28T03:00:49;13.47;;;9.50;;
12832;SDS011;6483;51.310;4.462;2023-02-28T03:03:19;16.53;;;9.70;;
12832;SDS011;6483;51.310;4.462;2023-02-28T03:05:54;15.17;;;9.43;;
12832;SDS011;6483;51.310;4.462;2023-02-28T03:08:25;11.33;;;8.43;;
12832;SDS011;6483;51.310;4.462;2023-02-28T03:10:56;15.13;;;10.00;;
12832;SDS011;6483;51.310;4.462;2023-02-28T03:22:09;12.97;;;8.97;;
12832;SDS011;6483;51.310;4.462;2023-02-28T03:33:42;11.60;;;8.63;;
12832;SDS011;6483;51.310;4.462;2023-02-28T03:36:20;13.53;;;8.90;;
12832;SDS011;6483;51.310;4.462;2023-02-28T03:38:51;11.50;;;8.67;;
12832;SDS011;6483;51.310;4.462;2023-02-28T03:41:43;17.80;;;9.90;;
12832;SDS011;6483;51.310;4.462;2023-02-28T03:44:17;13.00;;;8.83;;
12832;SDS011;6483;51.310;4.462;2023-02-28T03:47:14;12.37;;;9.17;;
12832;SDS011;6483;51.310;4.462;2023-02-28T03:52:33;13.30;;;8.30;;
12832;SDS011;6483;51.310;4.462;2023-02-28T03:55:28;13.07;;;8.57;;
12832;SDS011;6483;51.310;4.462;2023-02-28T03:58:07;11.60;;;7.97;;
12832;SDS011;6483;51.310;4.462;2023-02-28T04:01:41;13.17;;;7.63;;
12832;SDS011;6483;51.310;4.462;2023-02-28T04:04:23;11.80;;;7.70;;
12832;SDS011;6483;51.310;4.462;2023-02-28T04:06:49;10.77;;;7.80;;
12832;SDS011;6483;51.310;4.462;2023-02-28T04:09:25;11.00;;;7.03;;
12832;SDS011;6483;51.310;4.462;2023-02-28T04:11:51;10.03;;;6.80;;
12832;SDS011;6483;51.310;4.462;2023-02-28T04:14:26;14.10;;;7.13;;
12832;SDS011;6483;51.310;4.462;2023-02-28T04:16:52;9.07;;;6.50;;
12832;SDS011;6483;51.310;4.462;2023-02-28T04:19:21;8.30;;;6.37;;
12832;SDS011;6483;51.310;4.462;2023-02-28T04:21:50;10.10;;;6.67;;
12832;SDS011;6483;51.310;4.462;2023-02-28T04:24:38;10.00;;;6.80;;
12832;SDS011;6483;51.310;4.462;2023-02-28T04:27:09;7.90;;;5.90;;
12832;SDS011;6483;51.310;4.462;2023-02-28T04:29:51;8.53;;;6.23;;
12832;SDS011;6483;51.310;4.462;2023-02-28T04:32:17;10.63;;;5.87;;
12832;SDS011;6483;51.310;4.462;2023-02-28T04:34:42;8.37;;;5.90;;
12832;SDS011;6483;51.310;4.462;2023-02-28T04:37:08;8.90;;;5.70;;
12832;SDS011;6483;51.310;4.462;2023-02-28T04:39:37;8.30;;;6.00;;
12832;SDS011;6483;51.310;4.462;2023-02-28T04:42:06;11.27;;;5.83;;
12832;SDS011;6483;51.310;4.462;2023-02-28T04:44:32;6.57;;;5.73;;
12832;SDS011;6483;51.310;4.462;2023-02-28T04:46:58;7.93;;;5.70;;
12832;SDS011;6483;51.310;4.462;2023-02-28T04:49:24;9.10;;;5.93;;
12832;SDS011;6483;51.310;4.462;2023-02-28T04:51:50;7.00;;;5.20;;
12832;SDS011;6483;51.310;4.462;2023-02-28T04:54:18;12.33;;;6.00;;
12832;SDS011;6483;51.310;4.462;2023-02-28T04:56:50;9.23;;;6.07;;
12832;SDS011;6483;51.310;4.462;2023-02-28T04:59:15;7.03;;;5.47;;
12832;SDS011;6483;51.310;4.462;2023-02-28T05:01:45;9.50;;;6.50;;
12832;SDS011;6483;51.310;4.462;2023-02-28T05:04:12;8.80;;;6.03;;
12832;SDS011;6483;51.310;4.462;2023-02-28T05:06:41;9.30;;;6.17;;
12832;SDS011;6483;51.310;4.462;2023-02-28T05:09:10;10.73;;;5.80;;
12832;SDS011;6483;51.310;4.462;2023-02-28T05:11:40;12.57;;;6.13;;
12832;SDS011;6483;51.310;4.462;2023-02-28T05:14:12;11.23;;;6.30;;
12832;SDS011;6483;51.310;4.462;2023-02-28T05:16:42;10.23;;;6.40;;
12832;SDS011;6483;51.310;4.462;2023-02-28T05:19:11;10.43;;;6.73;;
12832;SDS011;6483;51.310;4.462;2023-02-28T05:24:19;10.93;;;6.53;;
12832;SDS011;6483;51.310;4.462;2023-02-28T05:26:47;14.90;;;7.40;;
12832;SDS011;6483;51.310;4.462;2023-02-28T05:29:18;13.47;;;7.23;;
12832;SDS011;6483;51.310;4.462;2023-02-28T05:31:47;17.20;;;8.40;;
12832;SDS011;6483;51.310;4.462;2023-02-28T05:34:13;11.43;;;8.40;;
12832;SDS011;6483;51.310;4.462;2023-02-28T05:36:43;13.17;;;8.50;;
12832;SDS011;6483;51.310;4.462;2023-02-28T05:39:10;16.27;;;7.60;;
12832;SDS011;6483;51.310;4.462;2023-02-28T05:41:42;16.37;;;7.77;;
12832;SDS011;6483;51.310;4.462;2023-02-28T05:44:09;16.23;;;8.30;;
12832;SDS011;6483;51.310;4.462;2023-02-28T05:46:36;17.37;;;8.00;;
12832;SDS011;6483;51.310;4.462;2023-02-28T05:49:01;14.07;;;7.93;;
12832;SDS011;6483;51.310;4.462;2023-02-28T05:51:28;15.97;;;7.80;;
12832;SDS011;6483;51.310;4.462;2023-02-28T05:53:54;15.17;;;8.30;;
12832;SDS011;6483;51.310;4.462;2023-02-28T05:56:24;15.50;;;8.47;;
12832;SDS011;6483;51.310;4.462;2023-02-28T05:58:50;15.33;;;8.40;;
12832;SDS011;6483;51.310;4.462;2023-02-28T06:04:19;12.07;;;7.37;;
12832;SDS011;6483;51.310;4.462;2023-02-28T06:06:45;13.47;;;7.03;;
12832;SDS011;6483;51.310;4.462;2023-02-28T06:09:15;15.17;;;7.63;;
12832;SDS011;6483;51.310;4.462;2023-02-28T06:11:44;10.93;;;6.93;;
12832;SDS011;6483;51.310;4.462;2023-02-28T06:14:16;12.30;;;7.47;;
12832;SDS011;6483;51.310;4.462;2023-02-28T06:16:46;14.47;;;7.43;;
12832;SDS011;6483;51.310;4.462;2023-02-28T06:19:12;10.77;;;7.37;;
12832;SDS011;6483;51.310;4.462;2023-02-28T06:21:40;16.13;;;6.73;;
12832;SDS011;6483;51.310;4.462;2023-02-28T06:24:10;10.97;;;6.53;;
12832;SDS011;6483;51.310;4.462;2023-02-28T06:26:37;14.23;;;7.50;;
12832;SDS011;6483;51.310;4.462;2023-02-28T06:29:03;10.77;;;6.63;;
12832;SDS011;6483;51.310;4.462;2023-02-28T06:31:28;9.67;;;6.20;;
12832;SDS011;6483;51.310;4.462;2023-02-28T06:34:04;10.93;;;6.10;;
12832;SDS011;6483;51.310;4.462;2023-02-28T06:36:30;6.97;;;5.60;;
12832;SDS011;6483;51.310;4.462;2023-02-28T06:38:56;9.03;;;5.70;;
12832;SDS011;6483;51.310;4.462;2023-02-28T06:41:25;9.13;;;5.90;;
12832;SDS011;6483;51.310;4.462;2023-02-28T06:43:54;6.73;;;5.13;;
12832;SDS011;6483;51.310;4.462;2023-02-28T06:46:20;7.67;;;5.50;;
12832;SDS011;6483;51.310;4.462;2023-02-28T06:48:46;12.07;;;5.40;;
12832;SDS011;6483;51.310;4.462;2023-02-28T06:51:17;14.53;;;7.20;;
12832;SDS011;6483;51.310;4.462;2023-02-28T06:53:47;7.40;;;5.47;;
12832;SDS011;6483;51.310;4.462;2023-02-28T06:56:14;10.83;;;5.13;;
12832;SDS011;6483;51.310;4.462;2023-02-28T06:58:45;10.83;;;5.07;;
12832;SDS011;6483;51.310;4.462;2023-02-28T07:01:17;8.03;;;5.53;;
12832;SDS011;6483;51.310;4.462;2023-02-28T07:03:47;12.67;;;6.23;;
12832;SDS011;6483;51.310;4.462;2023-02-28T07:06:20;8.40;;;5.57;;
12832;SDS011;6483;51.310;4.462;2023-02-28T07:08:50;9.10;;;4.90;;
12832;SDS011;6483;51.310;4.462;2023-02-28T07:11:20;8.77;;;5.43;;
12832;SDS011;6483;51.310;4.462;2023-02-28T07:13:47;8.93;;;5.10;;
12832;SDS011;6483;51.310;4.462;2023-02-28T07:16:14;10.40;;;5.63;;
12832;SDS011;6483;51.310;4.462;2023-02-28T07:18:40;6.00;;;5.10;;
12832;SDS011;6483;51.310;4.462;2023-02-28T07:21:07;7.27;;;5.40;;
12832;SDS011;6483;51.310;4.462;2023-02-28T07:23:34;11.20;;;4.90;;
12832;SDS011;6483;51.310;4.462;2023-02-28T07:26:06;7.73;;;5.07;;
12832;SDS011;6483;51.310;4.462;2023-02-28T07:28:36;12.93;;;6.17;;
12832;SDS011;6483;51.310;4.462;2023-02-28T07:31:06;7.73;;;4.83;;
12832;SDS011;6483;51.310;4.462;2023-02-28T07:33:33;9.17;;;5.13;;
12832;SDS011;6483;51.310;4.462;2023-02-28T07:36:06;7.40;;;4.83;;
12832;SDS011;6483;51.310;4.462;2023-02-28T07:38:43;15.47;;;6.10;;
12832;SDS011;6483;51.310;4.462;2023-02-28T07:41:11;6.80;;;4.63;;
12832;SDS011;6483;51.310;4.462;2023-02-28T07:43:37;6.03;;;4.77;;
12832;SDS011;6483;51.310;4.462;2023-02-28T07:46:07;6.30;;;4.73;;
12832;SDS011;6483;51.310;4.462;2023-02-28T07:48:34;7.63;;;4.97;;
12832;SDS011;6483;51.310;4.462;2023-02-28T07:51:00;6.13;;;4.30;;
12832;SDS011;6483;51.310;4.462;2023-02-28T07:53:29;7.03;;;4.70;;
12832;SDS011;6483;51.310;4.462;2023-02-28T07:55:56;6.73;;;4.70;;
12832;SDS011;6483;51.310;4.462;2023-02-28T07:58:23;6.73;;;4.63;;
12832;SDS011;6483;51.310;4.462;2023-02-28T08:00:49;6.37;;;4.40;;
12832;SDS011;6483;51.310;4.462;2023-02-28T08:03:16;6.23;;;4.53;;
12832;SDS011;6483;51.310;4.462;2023-02-28T08:05:43;8.10;;;4.50;;
12832;SDS011;6483;51.310;4.462;2023-02-28T08:08:09;7.03;;;4.63;;
12832;SDS011;6483;51.310;4.462;2023-02-28T08:10:34;6.83;;;4.73;;
12832;SDS011;6483;51.310;4.462;2023-02-28T08:13:00;8.10;;;4.03;;
12832;SDS011;6483;51.310;4.462;2023-02-28T08:15:26;5.80;;;4.27;;
12832;SDS011;6483;51.310;4.462;2023-02-28T08:17:52;7.93;;;4.23;;
12832;SDS011;6483;51.310;4.462;2023-02-28T08:20:18;10.80;;;4.67;;
12832;SDS011;6483;51.310;4.462;2023-02-28T08:22:44;5.47;;;4.27;;
12832;SDS011;6483;51.310;4.462;2023-02-28T08:25:09;10.30;;;5.30;;
12832;SDS011;6483;51.310;4.462;2023-02-28T08:27:38;9.00;;;4.40;;
12832;SDS011;6483;51.310;4.462;2023-02-28T08:30:03;7.10;;;4.53;;
12832;SDS011;6483;51.310;4.462;2023-02-28T08:32:36;8.27;;;4.50;;
12832;SDS011;6483;51.310;4.462;2023-02-28T08:35:01;8.13;;;4.33;;
12832;SDS011;6483;51.310;4.462;2023-02-28T08:37:28;7.60;;;4.67;;
12832;SDS011;6483;51.310;4.462;2023-02-28T08:39:54;7.40;;;3.97;;
12832;SDS011;6483;51.310;4.462;2023-02-28T08:42:20;4.93;;;3.57;;
12832;SDS011;6483;51.310;4.462;2023-02-28T08:44:45;6.13;;;3.47;;
12832;SDS011;6483;51.310;4.462;2023-02-28T08:47:14;5.50;;;3.70;;
12832;SDS011;6483;51.310;4.462;2023-02-28T08:49:39;4.90;;;2.87;;
12832;SDS011;6483;51.310;4.462;2023-02-28T08:52:07;4.53;;;2.90;;
12832;SDS011;6483;51.310;4.462;2023-02-28T08:54:35;9.43;;;5.33;;
12832;SDS011;6483;51.310;4.462;2023-02-28T08:57:02;7.37;;;3.03;;
12832;SDS011;6483;51.310;4.462;2023-02-28T08:59:28;4.57;;;3.30;;
12832;SDS011;6483;51.310;4.462;2023-02-28T09:01:54;3.70;;;2.60;;
12832;SDS011;6483;51.310;4.462;2023-02-28T09:04:20;4.87;;;2.50;;
12832;SDS011;6483;51.310;4.462;2023-02-28T09:06:47;3.70;;;1.90;;
12832;SDS011;6483;51.310;4.462;2023-02-28T09:09:14;2.60;;;2.40;;
12832;SDS011;6483;51.310;4.462;2023-02-28T09:11:43;3.80;;;2.27;;
12832;SDS011;6483;51.310;4.462;2023-02-28T09:14:11;5.83;;;2.50;;
12832;SDS011;6483;51.310;4.462;2023-02-28T09:16:37;2.87;;;2.23;;
12832;SDS011;6483;51.310;4.462;2023-02-28T09:19:03;2.40;;;1.90;;
12832;SDS011;6483;51.310;4.462;2023-02-28T09:21:31;1.80;;;1.70;;
12832;SDS011;6483;51.310;4.462;2023-02-28T09:23:57;2.93;;;2.10;;
12832;SDS011;6483;51.310;4.462;2023-02-28T09:26:27;1.60;;;1.50;;
12832;SDS011;6483;51.310;4.462;2023-02-28T09:28:53;2.30;;;1.80;;
12832;SDS011;6483;51.310;4.462;2023-02-28T09:31:22;2.75;;;2.05;;
12832;SDS011;6483;51.310;4.462;2023-02-28T09:33:50;3.10;;;2.20;;
12832;SDS011;6483;51.310;4.462;2023-02-28T09:36:20;2.70;;;1.83;;
12832;SDS011;6483;51.310;4.462;2023-02-28T09:38:47;1.75;;;1.33;;
12832;SDS011;6483;51.310;4.462;2023-02-28T09:41:17;3.27;;;1.73;;
12832;SDS011;6483;51.310;4.462;2023-02-28T09:43:55;4.68;;;1.95;;
12832;SDS011;6483;51.310;4.462;2023-02-28T09:49:08;4.18;;;2.08;;
12832;SDS011;6483;51.310;4.462;2023-02-28T09:56:59;2.00;;;1.70;;
12832;SDS011;6483;51.310;4.462;2023-02-28T09:59:39;1.88;;;1.60;;
12832;SDS011;6483;51.310;4.462;2023-02-28T10:02:45;3.53;;;2.00;;
12832;SDS011;6483;51.310;4.462;2023-02-28T10:05:23;3.20;;;1.60;;
12832;SDS011;6483;51.310;4.462;2023-02-28T10:08:11;1.35;;;1.25;;
12832;SDS011;6483;51.310;4.462;2023-02-28T10:10:44;2.97;;;1.70;;
12832;SDS011;6483;51.310;4.462;2023-02-28T10:16:45;1.92;;;1.38;;
12832;SDS011;6483;51.310;4.462;2023-02-28T10:22:57;1.80;;;1.27;;
12832;SDS011;6483;51.310;4.462;2023-02-28T10:25:32;1.85;;;1.73;;
12832;SDS011;6483;51.310;4.462;2023-02-28T10:28:07;2.08;;;1.42;;
12832;SDS011;6483;51.310;4.462;2023-02-28T10:30:40;3.47;;;1.33;;
12832;SDS011;6483;51.310;4.462;2023-02-28T10:33:21;1.90;;;1.35;;
12832;SDS011;6483;51.310;4.462;2023-02-28T10:35:56;3.22;;;1.42;;
12832;SDS011;6483;51.310;4.462;2023-02-28T10:38:43;3.50;;;1.30;;
12832;SDS011;6483;51.310;4.462;2023-02-28T10:41:16;1.83;;;1.48;;
12832;SDS011;6483;51.310;4.462;2023-02-28T10:44:17;1.55;;;1.25;;
12832;SDS011;6483;51.310;4.462;2023-02-28T10:46:51;2.60;;;1.50;;
12832;SDS011;6483;51.310;4.462;2023-02-28T10:49:25;1.27;;;1.17;;
12832;SDS011;6483;51.310;4.462;2023-02-28T10:51:57;1.70;;;1.15;;
12832;SDS011;6483;51.310;4.462;2023-02-28T10:54:36;5.55;;;1.40;;
12832;SDS011;6483;51.310;4.462;2023-02-28T10:57:20;1.98;;;1.10;;
12832;SDS011;6483;51.310;4.462;2023-02-28T10:59:52;2.10;;;1.27;;
12832;SDS011;6483;51.310;4.462;2023-02-28T11:02:32;1.25;;;1.15;;
12832;SDS011;6483;51.310;4.462;2023-02-28T11:05:20;1.52;;;1.38;;
12832;SDS011;6483;51.310;4.462;2023-02-28T11:08:10;4.28;;;1.20;;
12832;SDS011;6483;51.310;4.462;2023-02-28T11:10:54;1.60;;;1.23;;
12832;SDS011;6483;51.310;4.462;2023-02-28T11:13:28;1.08;;;1.00;;
12832;SDS011;6483;51.310;4.462;2023-02-28T11:16:07;1.55;;;1.13;;
12832;SDS011;6483;51.310;4.462;2023-02-28T11:21:06;1.27;;;1.02;;
12832;SDS011;6483;51.310;4.462;2023-02-28T11:23:35;1.95;;;1.50;;
12832;SDS011;6483;51.310;4.462;2023-02-28T11:26:05;1.20;;;1.10;;
12832;SDS011;6483;51.310;4.462;2023-02-28T11:28:37;1.55;;;1.17;;
12832;SDS011;6483;51.310;4.462;2023-02-28T11:31:15;2.42;;;1.30;;
12832;SDS011;6483;51.310;4.462;2023-02-28T11:33:54;5.95;;;1.50;;
12832;SDS011;6483;51.310;4.462;2023-02-28T11:39:03;1.35;;;0.98;;
12832;SDS011;6483;51.310;4.462;2023-02-28T11:52:56;2.38;;;1.10;;
12832;SDS011;6483;51.310;4.462;2023-02-28T11:55:35;1.88;;;1.30;;
12832;SDS011;6483;51.310;4.462;2023-02-28T11:58:23;1.55;;;1.10;;
12832;SDS011;6483;51.310;4.462;2023-02-28T12:01:15;3.10;;;1.30;;
12832;SDS011;6483;51.310;4.462;2023-02-28T12:10:23;1.10;;;1.08;;
12832;SDS011;6483;51.310;4.462;2023-02-28T12:16:12;0.95;;;0.90;;
12832;SDS011;6483;51.310;4.462;2023-02-28T12:19:33;1.30;;;1.10;;
12832;SDS011;6483;51.310;4.462;2023-02-28T12:28:01;1.23;;;1.13;;
12832;SDS011;6483;51.310;4.462;2023-02-28T12:30:28;1.30;;;1.20;;
12832;SDS011;6483;51.310;4.462;2023-02-28T12:33:03;1.20;;;1.10;;
12832;SDS011;6483;51.310;4.462;2023-02-28T12:46:43;1.50;;;1.40;;
12832;SDS011;6483;51.310;4.462;2023-02-28T12:52:07;1.85;;;1.27;;
12832;SDS011;6483;51.310;4.462;2023-02-28T12:57:41;2.85;;;1.58;;
12832;SDS011;6483;51.310;4.462;2023-02-28T13:00:29;3.25;;;1.77;;
12832;SDS011;6483;51.310;4.462;2023-02-28T13:11:08;1.67;;;1.30;;
12832;SDS011;6483;51.310;4.462;2023-02-28T13:14:00;2.88;;;1.20;;
12832;SDS011;6483;51.310;4.462;2023-02-28T13:19:20;2.45;;;1.15;;
12832;SDS011;6483;51.310;4.462;2023-02-28T13:21:50;1.20;;;1.10;;
12832;SDS011;6483;51.310;4.462;2023-02-28T13:24:37;2.45;;;1.08;;
12832;SDS011;6483;51.310;4.462;2023-02-28T13:29:49;1.38;;;1.27;;
12832;SDS011;6483;51.310;4.462;2023-02-28T13:32:39;1.35;;;1.25;;
12832;SDS011;6483;51.310;4.462;2023-02-28T13:37:34;1.20;;;1.10;;
12832;SDS011;6483;51.310;4.462;2023-02-28T13:45:19;1.45;;;1.30;;
12832;SDS011;6483;51.310;4.462;2023-02-28T13:48:23;4.15;;;1.58;;
12832;SDS011;6483;51.310;4.462;2023-02-28T13:50:48;1.65;;;1.52;;
12832;SDS011;6483;51.310;4.462;2023-02-28T14:01:02;2.47;;;1.40;;
12832;SDS011;6483;51.310;4.462;2023-02-28T14:08:59;3.65;;;1.48;;
12832;SDS011;6483;51.310;4.462;2023-02-28T14:11:34;1.38;;;1.25;;
12832;SDS011;6483;51.310;4.462;2023-02-28T14:14:02;1.42;;;1.33;;
12832;SDS011;6483;51.310;4.462;2023-02-28T14:19:15;1.77;;;1.67;;
12832;SDS011;6483;51.310;4.462;2023-02-28T14:30:15;3.53;;;1.60;;
12832;SDS011;6483;51.310;4.462;2023-02-28T14:32:49;1.40;;;1.30;;
12832;SDS011;6483;51.310;4.462;2023-02-28T14:35:48;1.80;;;1.67;;
12832;SDS011;6483;51.310;4.462;2023-02-28T14:38:27;1.27;;;1.20;;
12832;SDS011;6483;51.310;4.462;2023-02-28T14:41:22;1.98;;;1.60;;
12832;SDS011;6483;51.310;4.462;2023-02-28T14:43:50;1.92;;;1.58;;
12832;SDS011;6483;51.310;4.462;2023-02-28T14:46:18;2.22;;;1.60;;
12832;SDS011;6483;51.310;4.462;2023-02-28T14:48:45;1.60;;;1.30;;
12832;SDS011;6483;51.310;4.462;2023-02-28T14:51:17;2.15;;;1.58;;
12832;SDS011;6483;51.310;4.462;2023-02-28T14:53:46;1.40;;;1.30;;
12832;SDS011;6483;51.310;4.462;2023-02-28T14:56:21;1.63;;;1.52;;
12832;SDS011;6483;51.310;4.462;2023-02-28T14:59:23;2.85;;;1.90;;
12832;SDS011;6483;51.310;4.462;2023-02-28T15:01:51;1.90;;;1.63;;
12832;SDS011;6483;51.310;4.462;2023-02-28T15:04:32;1.75;;;1.60;;
12832;SDS011;6483;51.310;4.462;2023-02-28T15:07:11;4.47;;;2.15;;
12832;SDS011;6483;51.310;4.462;2023-02-28T15:09:39;4.35;;;1.65;;
12832;SDS011;6483;51.310;4.462;2023-02-28T15:12:06;3.45;;;1.70;;
12832;SDS011;6483;51.310;4.462;2023-02-28T15:14:32;2.42;;;1.92;;
12832;SDS011;6483;51.310;4.462;2023-02-28T15:17:05;3.42;;;1.70;;
12832;SDS011;6483;51.310;4.462;2023-02-28T15:19:34;1.70;;;1.60;;
12832;SDS011;6483;51.310;4.462;2023-02-28T15:22:11;2.88;;;2.13;;
12832;SDS011;6483;51.310;4.462;2023-02-28T15:24:52;1.90;;;1.67;;
12832;SDS011;6483;51.310;4.462;2023-02-28T15:27:22;2.75;;;1.70;;
12832;SDS011;6483;51.310;4.462;2023-02-28T15:29:56;1.67;;;1.30;;
12832;SDS011;6483;51.310;4.462;2023-02-28T15:35:20;3.30;;;1.60;;
12832;SDS011;6483;51.310;4.462;2023-02-28T15:40:26;2.60;;;1.45;;
12832;SDS011;6483;51.310;4.462;2023-02-28T15:43:36;2.30;;;2.10;;
12832;SDS011;6483;51.310;4.462;2023-02-28T15:45:51;3.33;;;1.75;;
12832;SDS011;6483;51.310;4.462;2023-02-28T15:48:33;4.47;;;1.95;;
12832;SDS011;6483;51.310;4.462;2023-02-28T15:53:58;2.83;;;1.90;;
12832;SDS011;6483;51.310;4.462;2023-02-28T15:56:35;1.75;;;1.65;;
12832;SDS011;6483;51.310;4.462;2023-02-28T15:59:14;3.17;;;1.90;;
12832;SDS011;6483;51.310;4.462;2023-02-28T16:01:42;1.90;;;1.80;;
12832;SDS011;6483;51.310;4.462;2023-02-28T16:04:15;4.95;;;2.03;;
12832;SDS011;6483;51.310;4.462;2023-02-28T16:09:16;2.95;;;2.22;;
12832;SDS011;6483;51.310;4.462;2023-02-28T16:11:46;4.22;;;2.03;;
12832;SDS011;6483;51.310;4.462;2023-02-28T16:14:18;2.95;;;2.13;;
12832;SDS011;6483;51.310;4.462;2023-02-28T16:16:50;2.58;;;1.95;;
12832;SDS011;6483;51.310;4.462;2023-02-28T16:19:18;2.28;;;1.77;;
12832;SDS011;6483;51.310;4.462;2023-02-28T16:21:44;2.13;;;1.80;;
12832;SDS011;6483;51.310;4.462;2023-02-28T16:24:10;2.97;;;2.42;;
12832;SDS011;6483;51.310;4.462;2023-02-28T16:26:36;2.58;;;2.28;;
12832;SDS011;6483;51.310;4.462;2023-02-28T16:29:05;3.75;;;2.10;;
12832;SDS011;6483;51.310;4.462;2023-02-28T16:31:38;4.78;;;2.15;;
12832;SDS011;6483;51.310;4.462;2023-02-28T16:34:04;3.87;;;2.13;;
12832;SDS011;6483;51.310;4.462;2023-02-28T16:36:30;2.42;;;2.13;;
12832;SDS011;6483;51.310;4.462;2023-02-28T16:38:56;3.27;;;2.43;;
12832;SDS011;6483;51.310;4.462;2023-02-28T16:41:23;3.07;;;2.27;;
12832;SDS011;6483;51.310;4.462;2023-02-28T16:43:54;2.03;;;1.90;;
12832;SDS011;6483;51.310;4.462;2023-02-28T16:46:30;3.47;;;2.00;;
12832;SDS011;6483;51.310;4.462;2023-02-28T16:48:59;4.67;;;2.10;;
12832;SDS011;6483;51.310;4.462;2023-02-28T16:51:28;2.20;;;2.00;;
12832;SDS011;6483;51.310;4.462;2023-02-28T16:53:57;3.27;;;2.23;;
12832;SDS011;6483;51.310;4.462;2023-02-28T16:56:26;2.70;;;1.90;;
12832;SDS011;6483;51.310;4.462;2023-02-28T16:58:52;2.60;;;2.37;;
12832;SDS011;6483;51.310;4.462;2023-02-28T17:01:25;2.67;;;2.47;;
12832;SDS011;6483;51.310;4.462;2023-02-28T17:03:52;2.50;;;2.17;;
12832;SDS011;6483;51.310;4.462;2023-02-28T17:06:25;2.20;;;2.00;;
12832;SDS011;6483;51.310;4.462;2023-02-28T17:08:56;5.17;;;2.40;;
12832;SDS011;6483;51.310;4.462;2023-02-28T17:11:27;3.23;;;2.10;;
12832;SDS011;6483;51.310;4.462;2023-02-28T17:13:56;6.77;;;2.20;;
12832;SDS011;6483;51.310;4.462;2023-02-28T17:16:27;2.33;;;2.13;;
12832;SDS011;6483;51.310;4.462;2023-02-28T17:19:00;3.40;;;2.30;;
12832;SDS011;6483;51.310;4.462;2023-02-28T17:21:27;3.27;;;2.40;;
12832;SDS011;6483;51.310;4.462;2023-02-28T17:23:53;3.73;;;2.37;;
12832;SDS011;6483;51.310;4.462;2023-02-28T17:26:20;2.57;;;2.17;;
12832;SDS011;6483;51.310;4.462;2023-02-28T17:28:47;3.77;;;2.37;;
12832;SDS011;6483;51.310;4.462;2023-02-28T17:31:13;6.07;;;2.83;;
12832;SDS011;6483;51.310;4.462;2023-02-28T17:33:39;3.23;;;2.90;;
12832;SDS011;6483;51.310;4.462;2023-02-28T17:36:05;5.70;;;3.30;;
12832;SDS011;6483;51.310;4.462;2023-02-28T17:38:38;4.97;;;3.47;;
12832;SDS011;6483;51.310;4.462;2023-02-28T17:41:04;10.07;;;5.33;;
12832;SDS011;6483;51.310;4.462;2023-02-28T17:43:34;11.20;;;5.53;;
12832;SDS011;6483;51.310;4.462;2023-02-28T17:46:00;7.27;;;4.83;;
12832;SDS011;6483;51.310;4.462;2023-02-28T17:48:26;6.53;;;5.00;;
12832;SDS011;6483;51.310;4.462;2023-02-28T17:50:53;6.50;;;4.70;;
12832;SDS011;6483;51.310;4.462;2023-02-28T17:53:25;6.07;;;4.20;;
12832;SDS011;6483;51.310;4.462;2023-02-28T17:55:52;5.53;;;3.97;;
12832;SDS011;6483;51.310;4.462;2023-02-28T17:58:18;5.53;;;4.33;;
12832;SDS011;6483;51.310;4.462;2023-02-28T18:00:44;4.63;;;3.97;;
12832;SDS011;6483;51.310;4.462;2023-02-28T18:03:18;5.87;;;3.90;;
12832;SDS011;6483;51.310;4.462;2023-02-28T18:05:45;5.47;;;3.73;;
12832;SDS011;6483;51.310;4.462;2023-02-28T18:08:17;5.27;;;3.97;;
12832;SDS011;6483;51.310;4.462;2023-02-28T18:10:43;4.17;;;3.70;;